Time;durP1;ratioP1;P1;durP2;ratioP2;P2;SDS_P1;SDS_P2;PMS_P1;PMS_P2;Temp;Humidity;BMP_temperature;BMP_pressure;BME280_temperature;BME280_humidity;BME280_pressure;Samples;Min_cycle;Max_cycle;Signal;HPM_P1;HPM_P2
2023/12/02 00:02:28;;;;;;;13.82;6.63;;;16.00;99.90;;;;;;5291177;28;20134;-74
2023/12/02 00:04:59;;;;;;;12.25;6.82;;;16.00;99.90;;;;;;5272784;28;20115;-71
2023/12/02 00:07:30;;;;;;;16.67;7.28;;;16.00;99.90;;;;;;5291038;28;20589;-76
2023/12/02 00:10:01;;;;;;;14.73;6.40;;;15.90;99.90;;;;;;5291028;28;20032;-72
2023/12/02 00:12:32;;;;;;;13.43;6.57;;;15.90;99.90;;;;;;5290874;28;20028;-77
2023/12/02 00:15:03;;;;;;;14.85;6.93;;;15.80;99.90;;;;;;5290640;28;20124;-75
2023/12/02 00:17:34;;;;;;;16.38;7.20;;;15.80;99.90;;;;;;5290858;28;20088;-71
2023/12/02 00:20:06;;;;;;;11.43;5.93;;;15.80;99.90;;;;;;5290670;28;20027;-71
2023/12/02 00:22:37;;;;;;;15.45;7.18;;;15.70;99.90;;;;;;5272497;28;20493;-73
2023/12/02 00:25:08;;;;;;;11.82;7.35;;;15.80;99.90;;;;;;5290319;28;20032;-73
2023/12/02 00:27:38;;;;;;;13.02;6.13;;;15.70;99.90;;;;;;5289980;28;20466;-71
2023/12/02 00:30:10;;;;;;;14.90;7.20;;;15.70;99.90;;;;;;5289497;28;20509;-73
2023/12/02 00:35:21;;;;;;;13.95;6.07;;;15.70;99.90;;;;;;5564183;23;20102;-73
2023/12/02 00:37:52;;;;;;;14.38;6.40;;;15.70;99.90;;;;;;5246980;28;20019;-74
2023/12/02 00:40:23;;;;;;;16.00;6.25;;;15.70;99.90;;;;;;5247572;28;20028;-77
2023/12/02 00:42:54;;;;;;;12.20;5.50;;;15.70;99.90;;;;;;5248209;28;20427;-74
2023/12/02 00:45:25;;;;;;;13.85;5.38;;;15.70;99.90;;;;;;5230462;28;20400;-72
2023/12/02 00:47:56;;;;;;;13.90;5.60;;;15.70;99.90;;;;;;5229477;28;20392;-74
2023/12/02 00:50:27;;;;;;;12.82;5.95;;;15.60;99.90;;;;;;5248310;28;20029;-72
2023/12/02 00:52:58;;;;;;;13.90;5.90;;;15.70;99.90;;;;;;5248181;28;20063;-77
2023/12/02 00:55:29;;;;;;;14.82;6.18;;;15.60;99.90;;;;;;5230114;28;20056;-73
2023/12/02 00:58:00;;;;;;;16.67;5.70;;;15.60;99.90;;;;;;5248191;28;20031;-73
2023/12/02 01:00:30;;;;;;;13.75;6.07;;;15.60;99.90;;;;;;5230471;28;20051;-73
2023/12/02 01:03:01;;;;;;;12.30;5.82;;;15.60;99.90;;;;;;5247898;28;20067;-77
2023/12/02 01:05:32;;;;;;;16.00;6.20;;;15.60;99.90;;;;;;5212529;28;20041;-73
2023/12/02 01:08:03;;;;;;;15.38;6.68;;;15.60;99.90;;;;;;5227142;28;20028;-74
2023/12/02 01:10:34;;;;;;;14.23;5.50;;;15.50;99.90;;;;;;5227164;28;20032;-73
2023/12/02 01:13:05;;;;;;;14.48;6.40;;;15.50;99.90;;;;;;5209091;28;20029;-73
2023/12/02 01:15:36;;;;;;;14.45;6.53;;;15.50;99.90;;;;;;5226712;28;20029;-75
2023/12/02 01:18:07;;;;;;;13.25;6.20;;;15.60;99.90;;;;;;5227102;28;20427;-73
2023/12/02 01:20:38;;;;;;;13.68;6.68;;;15.40;99.90;;;;;;5209172;28;20538;-76
2023/12/02 01:23:09;;;;;;;16.70;6.63;;;15.50;99.90;;;;;;5207975;28;20381;-72
2023/12/02 01:25:39;;;;;;;15.18;7.22;;;15.60;99.90;;;;;;5208258;28;20059;-74
2023/12/02 01:28:10;;;;;;;14.55;7.57;;;15.50;99.90;;;;;;5225551;28;20405;-72
2023/12/02 01:30:41;;;;;;;16.23;7.90;;;15.50;99.90;;;;;;5225602;28;20071;-75
2023/12/02 01:33:12;;;;;;;11.98;6.90;;;15.50;99.90;;;;;;5225456;28;20036;-74
2023/12/02 01:35:43;;;;;;;13.07;7.07;;;15.50;99.90;;;;;;5225100;28;20057;-77
2023/12/02 01:38:14;;;;;;;16.40;7.65;;;15.60;99.90;;;;;;5226569;28;20381;-75
2023/12/02 01:40:45;;;;;;;16.60;8.00;;;15.50;99.90;;;;;;5226215;28;20021;-73
2023/12/02 01:43:25;;;;;;;15.63;7.85;;;15.50;99.90;;;;;;5208492;28;20495;-78
2023/12/02 01:45:56;;;;;;;15.48;7.75;;;15.60;99.90;;;;;;5226505;28;20040;-73
2023/12/02 01:48:30;;;;;;;15.65;7.80;;;15.50;99.90;;;;;;5226459;28;20017;-76
2023/12/02 01:51:01;;;;;;;14.70;7.20;;;15.50;99.90;;;;;;5226468;28;20036;-74
2023/12/02 01:53:32;;;;;;;13.55;7.38;;;15.60;99.90;;;;;;5226449;28;20025;-74
2023/12/02 01:56:04;;;;;;;16.23;7.03;;;15.50;99.90;;;;;;5226394;28;20029;-73
2023/12/02 01:58:36;;;;;;;16.25;7.05;;;15.60;99.90;;;;;;5207830;28;20551;-76
2023/12/02 02:01:07;;;;;;;15.88;6.72;;;15.50;99.90;;;;;;5226316;28;20025;-75
2023/12/02 02:03:39;;;;;;;16.75;6.57;;;15.50;99.90;;;;;;5208232;28;20033;-75
2023/12/02 02:06:10;;;;;;;17.95;6.50;;;15.50;99.90;;;;;;5226291;28;20104;-76
2023/12/02 02:08:41;;;;;;;14.40;6.93;;;15.50;99.90;;;;;;5226306;28;20029;-74
2023/12/02 02:11:12;;;;;;;14.00;6.93;;;15.50;99.90;;;;;;5226428;28;20025;-72
2023/12/02 02:13:43;;;;;;;14.88;6.97;;;15.50;99.90;;;;;;5226523;28;20059;-76
2023/12/02 02:16:14;;;;;;;17.65;7.10;;;15.60;99.90;;;;;;5226018;28;20017;-73
2023/12/02 02:18:44;;;;;;;16.10;7.35;;;15.50;99.90;;;;;;5225318;28;20032;-73
2023/12/02 02:21:22;;;;;;;17.23;6.97;;;15.50;99.90;;;;;;5207767;28;20029;-73
2023/12/02 02:23:53;;;;;;;15.10;7.25;;;15.50;99.90;;;;;;5206799;28;20037;-74
2023/12/02 02:26:24;;;;;;;16.58;7.57;;;15.50;99.90;;;;;;5206869;28;20097;-72
2023/12/02 02:28:55;;;;;;;13.55;7.57;;;15.50;99.90;;;;;;5224636;28;20029;-73
2023/12/02 02:31:26;;;;;;;16.73;7.35;;;15.60;99.90;;;;;;5224675;28;20664;-78
2023/12/02 02:33:57;;;;;;;18.70;8.02;;;15.60;99.90;;;;;;5206377;28;20056;-75
2023/12/02 02:36:28;;;;;;;18.20;7.57;;;15.60;99.90;;;;;;5206982;28;20381;-74
2023/12/02 02:38:59;;;;;;;15.65;7.45;;;15.60;99.90;;;;;;5225872;28;20346;-73
2023/12/02 02:41:30;;;;;;;15.70;8.13;;;15.70;99.90;;;;;;5225918;28;20025;-78
2023/12/02 02:44:01;;;;;;;16.83;7.13;;;15.60;99.90;;;;;;5225724;28;20037;-76
2023/12/02 02:46:32;;;;;;;14.05;7.15;;;15.70;99.90;;;;;;5225858;28;20017;-72
2023/12/02 02:49:03;;;;;;;15.77;7.55;;;15.80;99.90;;;;;;5225888;28;20013;-75
2023/12/02 02:51:34;;;;;;;14.57;6.50;;;15.70;99.90;;;;;;5225680;28;20025;-75
2023/12/02 02:54:05;;;;;;;16.98;7.05;;;15.70;99.90;;;;;;5225712;28;20026;-75
2023/12/02 02:56:36;;;;;;;12.85;6.90;;;15.70;99.90;;;;;;5207858;28;20033;-76
2023/12/02 02:59:06;;;;;;;15.52;7.00;;;15.60;99.90;;;;;;5207796;28;20056;-74
2023/12/02 03:01:39;;;;;;;16.15;6.93;;;15.60;99.90;;;;;;5225381;28;20123;-76
2023/12/02 03:04:10;;;;;;;15.75;6.53;;;15.60;99.90;;;;;;5225351;28;20087;-73
2023/12/02 03:06:41;;;;;;;16.10;6.88;;;15.60;99.90;;;;;;5225574;28;20052;-74
2023/12/02 03:09:14;;;;;;;16.52;7.38;;;15.70;99.90;;;;;;5225797;28;20017;-74
2023/12/02 03:11:48;;;;;;;12.82;6.68;;;15.70;99.90;;;;;;5227959;28;20036;-73
2023/12/02 03:14:19;;;;;;;19.83;7.50;;;15.60;99.90;;;;;;5210940;28;20029;-74
2023/12/02 03:16:50;;;;;;;13.60;6.90;;;15.60;99.90;;;;;;5228987;28;20527;-74
2023/12/02 03:19:21;;;;;;;13.25;6.80;;;15.60;99.90;;;;;;5210071;28;20033;-72
2023/12/02 03:21:52;;;;;;;15.82;7.10;;;15.70;99.90;;;;;;5227970;28;20360;-74
2023/12/02 03:24:23;;;;;;;13.35;6.18;;;15.80;99.90;;;;;;5227696;28;20102;-75
2023/12/02 03:26:54;;;;;;;15.15;6.32;;;15.80;99.90;;;;;;5228170;28;20017;-73
2023/12/02 03:29:25;;;;;;;12.55;6.50;;;15.70;99.90;;;;;;5209997;28;20098;-72
2023/12/02 03:31:55;;;;;;;12.80;6.38;;;15.80;99.90;;;;;;5228027;28;20478;-73
2023/12/02 03:34:26;;;;;;;18.17;7.15;;;15.70;99.90;;;;;;5228747;28;20073;-73
2023/12/02 03:36:57;;;;;;;14.77;6.68;;;15.80;99.90;;;;;;5229047;28;20361;-72
2023/12/02 03:39:28;;;;;;;14.25;6.82;;;15.70;99.90;;;;;;5211191;28;20032;-75
2023/12/02 03:41:59;;;;;;;14.88;6.65;;;15.60;99.90;;;;;;5228906;28;20100;-76
2023/12/02 03:44:30;;;;;;;20.92;7.47;;;15.70;99.90;;;;;;5228735;28;20555;-76
2023/12/02 03:47:03;;;;;;;16.77;6.70;;;15.60;99.90;;;;;;5228905;28;20053;-73
2023/12/02 03:49:34;;;;;;;18.35;7.65;;;15.60;99.90;;;;;;5228787;28;20025;-73
2023/12/02 03:52:05;;;;;;;17.65;7.13;;;15.60;99.90;;;;;;5228676;28;20032;-77
2023/12/02 03:54:36;;;;;;;22.10;8.23;;;15.60;99.90;;;;;;5210740;28;20028;-75
2023/12/02 03:57:07;;;;;;;17.00;7.65;;;15.60;99.90;;;;;;5228642;28;20490;-73
2023/12/02 03:59:40;;;;;;;15.60;7.25;;;15.60;99.90;;;;;;5228086;28;20033;-76
2023/12/02 04:02:11;;;;;;;15.80;8.07;;;15.60;99.90;;;;;;5228430;28;20079;-72
2023/12/02 04:04:42;;;;;;;18.48;7.72;;;15.70;99.90;;;;;;5228044;28;20132;-72
2023/12/02 04:07:13;;;;;;;14.43;7.55;;;15.60;99.90;;;;;;5228386;28;20502;-73
2023/12/02 04:09:44;;;;;;;14.32;7.10;;;15.60;99.90;;;;;;5228129;28;20116;-72
2023/12/02 04:12:15;;;;;;;16.35;7.95;;;15.70;99.90;;;;;;5227250;28;20029;-73
2023/12/02 04:14:46;;;;;;;14.27;6.47;;;15.60;99.90;;;;;;5209566;28;20021;-72
2023/12/02 04:17:17;;;;;;;15.13;7.32;;;15.70;99.90;;;;;;5226723;28;20535;-74
2023/12/02 04:19:48;;;;;;;16.75;7.57;;;15.70;99.90;;;;;;5226798;28;20030;-73
2023/12/02 04:22:19;;;;;;;14.88;6.50;;;15.70;99.90;;;;;;5226835;28;20024;-73
2023/12/02 04:24:50;;;;;;;13.75;6.88;;;15.70;99.90;;;;;;5226103;28;20450;-75
2023/12/02 04:27:21;;;;;;;13.50;7.07;;;15.70;99.90;;;;;;5225950;28;20384;-73
2023/12/02 04:29:52;;;;;;;17.05;6.72;;;15.70;99.90;;;;;;5226601;28;20025;-72
2023/12/02 04:32:23;;;;;;;15.00;7.00;;;15.70;99.90;;;;;;5227885;28;20032;-77
2023/12/02 04:34:54;;;;;;;17.55;7.93;;;15.60;99.90;;;;;;5227551;28;20059;-74
2023/12/02 04:37:25;;;;;;;10.30;6.63;;;15.60;99.90;;;;;;5227898;28;20451;-73
2023/12/02 04:39:56;;;;;;;12.18;6.70;;;15.70;99.90;;;;;;5228142;28;20048;-77
2023/12/02 04:42:26;;;;;;;16.00;7.07;;;15.80;99.90;;;;;;5227951;28;20020;-77
2023/12/02 04:44:57;;;;;;;14.23;6.97;;;15.80;99.90;;;;;;5227478;28;20099;-76
2023/12/02 04:47:28;;;;;;;17.77;7.63;;;15.80;99.90;;;;;;5227574;28;20021;-74
2023/12/02 04:49:59;;;;;;;17.05;6.45;;;15.80;99.90;;;;;;5227554;28;20056;-77
2023/12/02 04:52:30;;;;;;;13.77;7.15;;;15.80;99.90;;;;;;5227436;28;20025;-75
2023/12/02 04:55:02;;;;;;;12.68;7.38;;;15.90;99.90;;;;;;5227391;28;20028;-76
2023/12/02 04:57:33;;;;;;;11.63;7.72;;;15.80;99.90;;;;;;5227386;28;20063;-74
2023/12/02 05:00:13;;;;;;;12.32;7.50;;;15.70;99.90;;;;;;5227331;28;20041;-73
2023/12/02 05:02:44;;;;;;;11.75;8.13;;;15.90;99.90;;;;;;5227356;28;20017;-72
2023/12/02 05:05:16;;;;;;;12.00;8.85;;;15.90;99.90;;;;;;5226514;28;20143;-73
2023/12/02 05:07:47;;;;;;;14.73;9.30;;;15.90;99.90;;;;;;5226652;28;20384;-72
2023/12/02 05:10:19;;;;;;;11.93;8.75;;;15.90;99.90;;;;;;5226008;28;20036;-73
2023/12/02 05:12:50;;;;;;;13.45;8.20;;;15.80;99.90;;;;;;5225810;28;20036;-75
2023/12/02 05:15:21;;;;;;;11.23;8.38;;;15.90;99.90;;;;;;5225737;28;20022;-75
2023/12/02 05:17:52;;;;;;;10.85;8.65;;;15.90;99.90;;;;;;5225736;28;20078;-75
2023/12/02 05:20:23;;;;;;;14.48;8.30;;;16.00;99.90;;;;;;5225506;28;20028;-74
2023/12/02 05:22:54;;;;;;;10.90;7.18;;;16.10;99.90;;;;;;5225596;28;20044;-76
2023/12/02 05:25:25;;;;;;;11.82;7.65;;;16.10;99.90;;;;;;5226214;28;20048;-74
2023/12/02 05:27:56;;;;;;;11.73;8.00;;;16.20;99.90;;;;;;5226724;28;20029;-72
2023/12/02 05:30:27;;;;;;;12.45;7.97;;;16.20;99.90;;;;;;5226838;28;20021;-82
2023/12/02 05:32:58;;;;;;;14.48;7.90;;;16.20;99.90;;;;;;5226589;28;20028;-75
2023/12/02 05:35:31;;;;;;;14.38;8.52;;;16.30;99.90;;;;;;5225906;28;20067;-73
2023/12/02 05:38:02;;;;;;;13.50;7.57;;;16.40;99.90;;;;;;5226738;28;20021;-74
2023/12/02 05:40:33;;;;;;;13.00;8.73;;;16.40;99.90;;;;;;5226761;28;20025;-76
2023/12/02 05:43:04;;;;;;;9.98;7.10;;;16.40;99.90;;;;;;5209066;28;20067;-74
2023/12/02 05:45:34;;;;;;;13.63;7.50;;;16.50;99.90;;;;;;5226505;28;20112;-76
2023/12/02 05:48:05;;;;;;;12.98;7.10;;;16.60;99.90;;;;;;5226460;28;20021;-73
2023/12/02 05:50:36;;;;;;;9.77;6.72;;;16.70;99.90;;;;;;5226664;28;20162;-77
2023/12/02 05:53:07;;;;;;;16.67;7.07;;;16.70;99.90;;;;;;5226531;28;20414;-75
2023/12/02 05:55:38;;;;;;;11.85;6.88;;;16.70;99.90;;;;;;5226806;28;20170;-81
2023/12/02 05:58:09;;;;;;;15.48;6.10;;;16.90;99.90;;;;;;5226619;28;20021;-78
2023/12/02 06:00:40;;;;;;;9.48;6.07;;;16.90;99.90;;;;;;5226486;28;20500;-72
2023/12/02 06:03:11;;;;;;;12.23;5.90;;;17.00;99.90;;;;;;5225750;28;20021;-74
2023/12/02 06:05:42;;;;;;;10.20;6.07;;;16.90;99.90;;;;;;5225477;28;20044;-73
2023/12/02 06:08:14;;;;;;;9.02;5.35;;;16.90;99.90;;;;;;5224743;28;20135;-74
2023/12/02 06:10:44;;;;;;;11.45;5.93;;;16.90;99.90;;;;;;5225030;28;20496;-72
2023/12/02 06:13:15;;;;;;;11.48;5.75;;;17.10;99.90;;;;;;5224692;28;20032;-79
2023/12/02 06:15:46;;;;;;;13.07;5.93;;;17.10;99.90;;;;;;5225721;28;20480;-75
2023/12/02 06:18:17;;;;;;;28.17;16.60;;;17.20;99.90;;;;;;5226136;28;20032;-72
2023/12/02 06:20:48;;;;;;;26.85;18.20;;;17.10;99.90;;;;;;5226209;28;20043;-74
2023/12/02 06:23:19;;;;;;;20.65;15.55;;;17.10;99.90;;;;;;5225955;28;20021;-72
2023/12/02 06:25:50;;;;;;;10.50;6.47;;;17.10;99.90;;;;;;5226141;28;20040;-77
2023/12/02 06:28:21;;;;;;;13.45;6.35;;;17.10;99.90;;;;;;5226155;28;20100;-79
2023/12/02 06:30:52;;;;;;;13.55;7.88;;;17.20;99.90;;;;;;5226074;28;20033;-81
2023/12/02 06:33:22;;;;;;;13.02;7.32;;;17.20;99.90;;;;;;5225840;28;20032;-77
2023/12/02 06:35:53;;;;;;;10.45;7.95;;;17.30;99.90;;;;;;5225792;28;20052;-78
2023/12/02 06:38:24;;;;;;;12.88;7.43;;;17.40;99.90;;;;;;5225953;28;20029;-74
2023/12/02 06:40:55;;;;;;;12.20;7.25;;;17.30;99.90;;;;;;5225910;28;20033;-78
2023/12/02 06:43:27;;;;;;;17.10;7.78;;;17.30;99.90;;;;;;5225788;28;20021;-80
2023/12/02 06:45:57;;;;;;;13.02;7.00;;;17.20;99.90;;;;;;5226741;28;20116;-81
2023/12/02 06:48:29;;;;;;;13.23;7.22;;;17.30;99.90;;;;;;5229752;28;20155;-78
2023/12/02 06:51:00;;;;;;;11.70;7.28;;;17.40;99.90;;;;;;5229912;28;20124;-77
2023/12/02 06:53:31;;;;;;;11.20;6.80;;;17.60;99.90;;;;;;5229965;28;20029;-81
2023/12/02 06:56:02;;;;;;;16.35;8.02;;;17.50;99.90;;;;;;5229673;28;20078;-81
2023/12/02 06:58:37;;;;;;;13.57;7.05;;;17.70;99.90;;;;;;5228900;28;20197;-81
2023/12/02 07:01:07;;;;;;;15.85;6.90;;;17.80;99.90;;;;;;5228964;28;20079;-80
2023/12/02 07:03:38;;;;;;;12.10;7.45;;;17.90;99.90;;;;;;5228141;28;20064;-76
2023/12/02 07:06:09;;;;;;;12.68;7.82;;;18.00;99.90;;;;;;5228185;28;20388;-75
2023/12/02 07:08:41;;;;;;;12.73;8.75;;;18.10;99.90;;;;;;5228174;28;20037;-74
2023/12/02 07:11:11;;;;;;;14.05;8.65;;;18.20;99.90;;;;;;5228130;28;20031;-77
2023/12/02 07:13:43;;;;;;;9.65;7.60;;;18.30;99.90;;;;;;5228479;28;20025;-80
2023/12/02 07:16:14;;;;;;;16.05;8.38;;;18.30;99.90;;;;;;5228530;28;20032;-80
2023/12/02 07:18:45;;;;;;;13.88;8.00;;;18.50;99.90;;;;;;5229366;28;20029;-77
2023/12/02 07:21:16;;;;;;;9.68;7.53;;;18.60;99.90;;;;;;5229330;28;20029;-79
2023/12/02 07:23:47;;;;;;;15.20;8.10;;;18.60;99.90;;;;;;5229141;28;20072;-75
2023/12/02 07:26:18;;;;;;;13.50;8.48;;;18.80;99.90;;;;;;5229010;28;20542;-74
2023/12/02 07:28:49;;;;;;;17.95;8.95;;;18.80;99.90;;;;;;5229133;28;20656;-82
2023/12/02 07:31:20;;;;;;;19.05;9.45;;;19.00;99.90;;;;;;5229240;28;20017;-73
2023/12/02 07:33:50;;;;;;;12.85;7.38;;;19.00;99.90;;;;;;5228472;28;20041;-77
2023/12/02 07:36:21;;;;;;;14.52;8.48;;;19.10;99.90;;;;;;5229073;28;20040;-73
2023/12/02 07:38:53;;;;;;;15.50;9.95;;;19.10;99.90;;;;;;5228784;28;20070;-76
2023/12/02 07:41:24;;;;;;;10.13;8.73;;;18.90;99.90;;;;;;5228923;28;20111;-75
2023/12/02 07:43:54;;;;;;;13.05;8.90;;;18.90;99.90;;;;;;5210834;28;20120;-72
2023/12/02 07:46:25;;;;;;;11.50;9.68;;;19.00;99.90;;;;;;5228791;28;20028;-72
2023/12/02 07:48:56;;;;;;;13.40;10.07;;;18.80;99.90;;;;;;5228616;28;20112;-73
2023/12/02 07:51:27;;;;;;;12.18;9.25;;;18.80;99.90;;;;;;5228700;28;20385;-78
2023/12/02 07:53:58;;;;;;;15.25;9.40;;;18.80;99.90;;;;;;5227788;28;20033;-75
2023/12/02 07:56:29;;;;;;;18.00;9.45;;;18.70;99.90;;;;;;5227888;28;20037;-73
2023/12/02 07:59:00;;;;;;;16.30;9.30;;;18.90;99.90;;;;;;5227182;28;20078;-75
2023/12/02 08:01:31;;;;;;;15.80;9.00;;;18.80;99.90;;;;;;5227142;28;20064;-76
2023/12/02 08:04:02;;;;;;;15.15;9.43;;;19.00;99.90;;;;;;5226953;28;20575;-79
2023/12/02 08:06:33;;;;;;;15.13;9.45;;;19.00;99.90;;;;;;5226891;28;20036;-78
2023/12/02 08:09:04;;;;;;;17.15;9.52;;;19.00;99.90;;;;;;5226912;28;20071;-74
2023/12/02 08:11:35;;;;;;;13.02;9.05;;;18.90;99.90;;;;;;5227069;28;20029;-74
2023/12/02 08:14:07;;;;;;;14.63;11.18;;;19.10;99.90;;;;;;5228561;28;20416;-81
2023/12/02 08:16:37;;;;;;;20.38;12.90;;;19.30;99.90;;;;;;5228150;28;20025;-79
2023/12/02 08:19:08;;;;;;;16.10;11.10;;;19.30;99.90;;;;;;5228189;28;20021;-82
2023/12/02 08:21:39;;;;;;;20.35;10.40;;;19.30;99.90;;;;;;5228149;28;20534;-74
2023/12/02 08:24:10;;;;;;;15.55;10.13;;;19.60;99.90;;;;;;5228105;28;20485;-75
2023/12/02 08:26:41;;;;;;;21.73;8.98;;;19.50;99.90;;;;;;5228223;28;20074;-74
2023/12/02 08:29:13;;;;;;;15.20;9.00;;;19.70;99.90;;;;;;5228174;28;20017;-79
2023/12/02 08:31:44;;;;;;;14.57;9.98;;;19.60;99.90;;;;;;5228079;28;20492;-83
2023/12/02 08:34:15;;;;;;;17.05;9.48;;;20.00;99.90;;;;;;5227571;28;20045;-73
2023/12/02 08:36:46;;;;;;;19.23;11.75;;;20.00;99.90;;;;;;5227853;28;20033;-72
2023/12/02 08:39:17;;;;;;;21.15;14.02;;;20.00;99.90;;;;;;5227028;28;20442;-77
2023/12/02 08:41:48;;;;;;;16.42;14.82;;;20.20;99.90;;;;;;5227533;28;20025;-78
2023/12/02 08:44:19;;;;;;;15.70;12.98;;;20.20;99.90;;;;;;5226766;28;20583;-75
2023/12/02 08:46:52;;;;;;;14.20;11.82;;;20.40;99.90;;;;;;5227090;28;20036;-82
2023/12/02 08:49:23;;;;;;;19.08;13.13;;;20.40;99.90;;;;;;5227069;28;20104;-76
2023/12/02 08:51:55;;;;;;;18.08;13.30;;;20.60;99.90;;;;;;5226995;28;20112;-75
2023/12/02 08:54:26;;;;;;;17.88;13.30;;;20.70;99.90;;;;;;5226384;28;20029;-75
2023/12/02 08:56:57;;;;;;;14.65;12.90;;;20.80;99.90;;;;;;5225678;28;20025;-73
2023/12/02 08:59:28;;;;;;;21.23;14.50;;;20.70;99.90;;;;;;5225169;28;20082;-74
2023/12/02 09:24:04;;;;;;;12.77;9.02;;;20.80;99.90;;;;;;5307352;27;20389;-72
2023/12/02 09:26:40;;;;;;;14.05;11.23;;;20.80;99.90;;;;;;5307743;27;20054;-71
2023/12/02 09:29:11;;;;;;;14.27;10.02;;;21.00;99.90;;;;;;5307270;27;20087;-72
2023/12/02 09:31:43;;;;;;;14.10;9.27;;;20.70;99.90;;;;;;5307168;27;20458;-70
2023/12/02 09:34:40;;;;;;;12.65;9.82;;;20.70;99.90;;;;;;5307053;27;20031;-71
2023/12/02 09:37:52;;;;;;;12.05;9.35;;;20.60;99.90;;;;;;5276048;28;20039;-71
2023/12/02 09:40:48;;;;;;;12.77;9.27;;;20.50;99.90;;;;;;5267251;28;20115;-77
2023/12/02 10:22:49;;;;;;;15.70;13.95;;;21.00;99.90;;;;;;5307083;27;20422;-81
2023/12/02 10:37:49;;;;;;;19.33;17.10;;;20.90;99.90;;;;;;5285750;27;20407;-72
2023/12/02 10:40:25;;;;;;;15.38;10.88;;;20.00;99.90;;;;;;5286049;28;20352;-73
2023/12/02 10:43:13;;;;;;;18.88;12.77;;;19.80;99.90;;;;;;5285775;28;20059;-85
2023/12/02 10:45:45;;;;;;;19.58;11.98;;;19.90;99.90;;;;;;5284953;28;20036;-76
2023/12/02 10:48:18;;;;;;;15.85;12.20;;;19.70;99.90;;;;;;5284630;28;20138;-73
2023/12/02 10:50:49;;;;;;;20.42;12.52;;;19.70;99.90;;;;;;5284477;28;20028;-73
2023/12/02 10:53:22;;;;;;;28.73;16.95;;;19.60;99.90;;;;;;5284131;28;20020;-82
2023/12/02 10:55:59;;;;;;;19.08;10.70;;;19.50;99.90;;;;;;5284806;28;20108;-73
2023/12/02 10:58:30;;;;;;;13.55;9.10;;;19.50;99.90;;;;;;5264444;28;20387;-89
2023/12/02 11:01:10;;;;;;;20.13;10.35;;;19.40;99.90;;;;;;5264115;28;20029;-72
2023/12/02 11:04:02;;;;;;;21.83;9.57;;;19.40;99.90;;;;;;5264576;28;20024;-72
2023/12/02 11:06:40;;;;;;;19.98;10.68;;;19.50;99.90;;;;;;5264357;28;20036;-73
2023/12/02 11:09:36;;;;;;;33.45;20.17;;;19.50;99.90;;;;;;5264684;28;20024;-84
2023/12/02 11:12:25;;;;;;;14.13;10.32;;;19.50;99.90;;;;;;5264577;28;20055;-84
2023/12/02 11:15:03;;;;;;;29.17;17.92;;;19.40;99.90;;;;;;5264467;28;20078;-88
2023/12/02 11:18:17;;;;;;;23.20;12.90;;;19.40;99.90;;;;;;5264386;28;20039;-78
2023/12/02 11:20:57;;;;;;;17.77;9.70;;;19.40;99.90;;;;;;5183354;28;20465;-80
2023/12/02 11:23:43;;;;;;;18.45;10.77;;;19.40;99.90;;;;;;5199945;28;20038;-87
2023/12/02 11:26:30;;;;;;;21.27;10.77;;;19.40;99.90;;;;;;5199638;28;20077;-75
2023/12/02 11:29:20;;;;;;;16.13;9.20;;;19.50;99.90;;;;;;5199864;28;20117;-76
2023/12/02 11:32:12;;;;;;;20.38;13.02;;;19.60;99.90;;;;;;5199488;28;20045;-84
2023/12/02 11:35:07;;;;;;;19.08;10.45;;;19.60;99.90;;;;;;5199455;28;20129;-78
2023/12/02 11:37:58;;;;;;;14.38;9.60;;;19.60;99.90;;;;;;5190379;28;20050;-72
2023/12/02 11:40:51;;;;;;;21.23;11.00;;;19.50;99.90;;;;;;5185856;28;20390;-75
2023/12/02 11:43:33;;;;;;;16.70;10.43;;;19.60;99.90;;;;;;5185787;28;20026;-81
2023/12/02 11:46:07;;;;;;;28.02;16.50;;;19.50;99.90;;;;;;5185664;28;20136;-78
2023/12/02 11:48:46;;;;;;;17.52;9.07;;;19.60;99.90;;;;;;5185458;28;20029;-72
2023/12/02 11:51:20;;;;;;;17.83;10.07;;;19.50;99.90;;;;;;5213367;28;20507;-73
2023/12/02 11:54:17;;;;;;;16.80;11.15;;;19.60;99.90;;;;;;5249710;28;20119;-84
2023/12/02 11:57:16;;;;;;;13.23;9.77;;;19.60;99.90;;;;;;5246654;28;20060;-86
2023/12/02 12:00:11;;;;;;;15.70;10.07;;;19.60;99.90;;;;;;5242048;28;20037;-78
2023/12/02 12:02:59;;;;;;;16.40;10.18;;;19.80;99.90;;;;;;5249566;28;20633;-87
2023/12/02 12:06:04;;;;;;;16.98;10.48;;;19.60;99.90;;;;;;5249331;28;20406;-84
2023/12/02 12:09:02;;;;;;;23.77;10.23;;;19.90;99.90;;;;;;5249325;28;20120;-74
2023/12/02 12:11:34;;;;;;;17.20;10.00;;;20.00;99.90;;;;;;5249340;28;20025;-79
2023/12/02 12:14:07;;;;;;;16.33;9.30;;;20.30;99.90;;;;;;5249275;28;20013;-87
2023/12/02 12:16:38;;;;;;;24.15;11.18;;;20.60;99.90;;;;;;5248439;28;20036;-73
2023/12/02 12:19:09;;;;;;;16.20;9.93;;;20.90;99.90;;;;;;5249164;28;20371;-86
2023/12/02 12:21:42;;;;;;;18.88;11.90;;;20.90;99.90;;;;;;5249182;28;20064;-90
2023/12/02 12:24:13;;;;;;;14.43;9.80;;;21.10;99.90;;;;;;5248033;28;20120;-83
2023/12/02 12:26:44;;;;;;;20.05;12.48;;;21.00;99.90;;;;;;5248432;28;20411;-84
2023/12/02 12:29:19;;;;;;;17.52;11.30;;;20.80;99.90;;;;;;5248358;28;20025;-85
2023/12/02 12:31:49;;;;;;;20.60;12.60;;;21.00;99.90;;;;;;5248755;28;20063;-85
2023/12/02 12:34:22;;;;;;;16.40;12.50;;;21.00;99.90;;;;;;5247832;28;20048;-86
2023/12/02 12:36:53;;;;;;;14.52;12.80;;;21.00;99.90;;;;;;5253110;28;20044;-84
2023/12/02 12:39:24;;;;;;;19.45;13.50;;;21.10;99.90;;;;;;5270071;28;20035;-86
2023/12/02 12:41:56;;;;;;;19.70;12.52;;;21.60;99.90;;;;;;5259873;28;20016;-86
2023/12/02 12:44:27;;;;;;;11.98;10.50;;;20.90;99.90;;;;;;5257763;28;20368;-86
2023/12/02 12:46:58;;;;;;;21.17;12.30;;;20.60;99.90;;;;;;5258352;28;20029;-85
2023/12/02 12:49:33;;;;;;;22.05;12.27;;;20.30;99.90;;;;;;5256823;28;20031;-84
2023/12/02 12:52:07;;;;;;;13.80;11.68;;;20.20;99.90;;;;;;5253054;28;20433;-90
2023/12/02 12:54:42;;;;;;;18.45;11.85;;;20.10;99.90;;;;;;5259856;28;20027;-84
2023/12/02 12:57:39;;;;;;;20.52;13.82;;;20.00;99.90;;;;;;5259025;28;20024;-87
2023/12/02 13:00:14;;;;;;;20.25;13.25;;;19.90;99.90;;;;;;5246526;28;20578;-81
2023/12/02 13:02:54;;;;;;;18.83;13.32;;;19.80;99.90;;;;;;5254087;28;20027;-87
2023/12/02 13:05:39;;;;;;;15.70;11.95;;;19.80;99.90;;;;;;5254933;28;20020;-87
2023/12/02 13:08:18;;;;;;;20.30;12.05;;;19.80;99.90;;;;;;5256392;28;20116;-91
2023/12/02 13:10:54;;;;;;;17.77;11.60;;;19.60;99.90;;;;;;5256471;28;20018;-86
2023/12/02 13:13:30;;;;;;;18.02;14.30;;;19.50;99.90;;;;;;5250804;28;20032;-83
2023/12/02 13:16:03;;;;;;;13.93;11.48;;;19.50;99.90;;;;;;5259746;28;20016;-87
2023/12/02 13:18:35;;;;;;;12.60;9.52;;;19.50;99.90;;;;;;5268890;28;20020;-87
2023/12/02 13:21:07;;;;;;;15.68;9.57;;;19.40;99.90;;;;;;5268765;28;20020;-87
2023/12/02 13:23:38;;;;;;;15.90;8.85;;;19.30;99.90;;;;;;5268850;28;20056;-83
2023/12/02 13:26:09;;;;;;;16.90;8.98;;;19.40;99.90;;;;;;5268609;28;20108;-88
2023/12/02 13:28:42;;;;;;;15.25;9.05;;;19.30;99.90;;;;;;5268548;28;20017;-85
2023/12/02 13:31:15;;;;;;;26.23;16.92;;;19.30;99.90;;;;;;5267994;28;20804;-73
2023/12/02 13:33:55;;;;;;;15.25;9.10;;;19.20;99.90;;;;;;5267786;28;20031;-76
2023/12/02 13:36:40;;;;;;;16.67;8.77;;;19.20;99.90;;;;;;5267092;28;20525;-84
2023/12/02 13:39:28;;;;;;;12.30;8.40;;;19.10;99.90;;;;;;5267032;28;20074;-87
2023/12/02 13:42:10;;;;;;;12.75;8.80;;;19.10;99.90;;;;;;5268747;28;20032;-84
2023/12/02 13:44:45;;;;;;;13.93;9.40;;;19.10;99.90;;;;;;5268391;28;20012;-79
2023/12/02 13:47:41;;;;;;;21.55;12.07;;;19.10;99.90;;;;;;5268312;28;20044;-83
2023/12/02 13:50:17;;;;;;;13.65;9.35;;;19.10;99.90;;;;;;5268197;28;20047;-74
2023/12/02 13:53:24;;;;;;;17.27;10.15;;;19.00;99.90;;;;;;5267988;28;20024;-82
2023/12/02 13:56:11;;;;;;;17.00;11.18;;;19.00;99.90;;;;;;5268270;28;20058;-75
2023/12/02 13:59:00;;;;;;;19.98;10.93;;;18.80;99.90;;;;;;5268212;28;20099;-72
2023/12/02 14:01:34;;;;;;;15.53;10.27;;;18.90;99.90;;;;;;5267863;28;20040;-87
2023/12/02 14:04:24;;;;;;;16.88;9.20;;;18.90;99.90;;;;;;5267183;28;20394;-73
2023/12/02 14:07:07;;;;;;;14.70;9.80;;;18.90;99.90;;;;;;5266571;28;20080;-73
2023/12/02 14:09:40;;;;;;;18.05;10.60;;;18.90;99.90;;;;;;5267530;28;20067;-87
2023/12/02 14:12:21;;;;;;;12.90;8.93;;;18.80;99.90;;;;;;5267695;28;20374;-84
2023/12/02 14:15:29;;;;;;;14.25;8.77;;;18.80;99.90;;;;;;5267759;28;20024;-81
2023/12/02 14:18:19;;;;;;;14.15;9.18;;;18.80;99.90;;;;;;5267849;28;20020;-72
2023/12/02 14:21:08;;;;;;;17.23;8.20;;;18.80;99.90;;;;;;5268257;28;20455;-75
2023/12/02 14:24:04;;;;;;;12.75;8.95;;;18.80;99.90;;;;;;5268012;28;20262;-88
2023/12/02 14:26:56;;;;;;;13.05;8.27;;;18.80;99.90;;;;;;5267059;28;20059;-81
2023/12/02 14:29:40;;;;;;;15.00;8.77;;;18.80;99.90;;;;;;5266846;28;20034;-74